TRA98G EHAM-GCLP
Flight info
| Callsign | TRA98G |
|---|---|
| Flight time | N/A |
| Altitude | 23000 |
| Route | WOODY N872 CIV/N0456F330 N872 MEDIL DCT KOVIN DCT NIDUV DCT KIHVI DCT PON DCT DITAL DCT GODIX DCT DIDAK DCT KURIS DCT TERPO DCT ERIGA DCT FUJTI DCT BAKUP DCT BATAX DCT BABEX DCT OSLAD/N0459F350 UR724 IBALU UN857 TERTO |
| Aircraft | B738/M-SDE2E3FGHIJ1RWXYZ/LB1 |
Departure
| Time | N/A |
|---|---|
| Airport | Amsterdam Airport Schiphol (EHAM) |
Arrival
| Time | 2026-05-04 10:37 |
|---|---|
| Airport | Gran Canaria Airport (GCLP) |
| Time | Latitude | Longitude | Altitude | Speed | Heading |
|---|---|---|---|---|---|
| 2026-05-04 08:00 | 39.85128 | -7.38848 | 34998 ft | 441 kts | 191° |
| 2026-05-04 08:02 | 39.61112 | -7.44869 | 35005 ft | 440 kts | 191° |
| 2026-05-04 08:02 | 39.55092 | -7.46372 | 35004 ft | 440 kts | 191° |
| 2026-05-04 08:03 | 39.49067 | -7.47873 | 34996 ft | 441 kts | 191° |
| 2026-05-04 08:03 | 39.43030 | -7.49375 | 35003 ft | 442 kts | 191° |
| 2026-05-04 08:04 | 39.36989 | -7.50875 | 34998 ft | 442 kts | 191° |
| 2026-05-04 08:04 | 39.30935 | -7.52376 | 35003 ft | 443 kts | 191° |
| 2026-05-04 08:05 | 39.24912 | -7.53866 | 35002 ft | 443 kts | 191° |
| 2026-05-04 08:05 | 39.18851 | -7.55363 | 34995 ft | 444 kts | 191° |
| 2026-05-04 08:06 | 39.12787 | -7.56858 | 35004 ft | 444 kts | 191° |
| 2026-05-04 08:06 | 39.06715 | -7.58353 | 35001 ft | 443 kts | 191° |
| 2026-05-04 08:08 | 38.82515 | -7.64283 | 35003 ft | 442 kts | 191° |
| 2026-05-04 08:11 | 38.55385 | -7.70883 | 35000 ft | 441 kts | 191° |
| 2026-05-04 08:11 | 38.46385 | -7.73061 | 34999 ft | 441 kts | 191° |
| 2026-05-04 08:12 | 38.40356 | -7.74517 | 35005 ft | 441 kts | 191° |
| 2026-05-04 08:12 | 38.34322 | -7.75972 | 35000 ft | 441 kts | 191° |
| 2026-05-04 08:13 | 38.28286 | -7.77425 | 35003 ft | 441 kts | 191° |
| 2026-05-04 08:13 | 38.22251 | -7.78875 | 34996 ft | 441 kts | 191° |
| 2026-05-04 08:14 | 38.16209 | -7.80325 | 35001 ft | 441 kts | 191° |
| 2026-05-04 08:16 | 37.92079 | -7.86089 | 35001 ft | 441 kts | 191° |
| 2026-05-04 08:16 | 37.86078 | -7.87516 | 35004 ft | 441 kts | 191° |
| 2026-05-04 08:17 | 37.80035 | -7.88951 | 34997 ft | 441 kts | 191° |
| 2026-05-04 08:17 | 37.73995 | -7.90383 | 35001 ft | 441 kts | 191° |
| 2026-05-04 08:19 | 37.49875 | -7.96078 | 35003 ft | 441 kts | 191° |
| 2026-05-04 08:20 | 37.44855 | -7.97259 | 35002 ft | 441 kts | 191° |
| 2026-05-04 08:20 | 37.38821 | -7.98676 | 35005 ft | 441 kts | 191° |
| 2026-05-04 08:21 | 37.32778 | -8.00093 | 35002 ft | 442 kts | 191° |
| 2026-05-04 08:21 | 37.26729 | -8.01508 | 35008 ft | 442 kts | 191° |
| 2026-05-04 08:22 | 37.20682 | -8.02921 | 35011 ft | 442 kts | 191° |
| 2026-05-04 08:24 | 36.96518 | -8.08545 | 34996 ft | 441 kts | 190° |
| 2026-05-04 08:24 | 36.90489 | -8.09942 | 34996 ft | 440 kts | 190° |
| 2026-05-04 08:25 | 36.84454 | -8.11339 | 35001 ft | 440 kts | 190° |
| 2026-05-04 08:25 | 36.78440 | -8.12728 | 35007 ft | 439 kts | 190° |
| 2026-05-04 08:27 | 36.54458 | -8.18247 | 35005 ft | 439 kts | 190° |
| 2026-05-04 08:28 | 36.48454 | -8.19624 | 34997 ft | 439 kts | 190° |
| 2026-05-04 08:28 | 36.42449 | -8.20998 | 35009 ft | 439 kts | 190° |
| 2026-05-04 08:29 | 36.36432 | -8.22373 | 35000 ft | 439 kts | 190° |
| 2026-05-04 08:31 | 36.12392 | -8.27845 | 35000 ft | 440 kts | 190° |
| 2026-05-04 08:33 | 35.88372 | -8.33929 | 35008 ft | 440 kts | 195° |
| 2026-05-04 08:35 | 35.64691 | -8.41535 | 35005 ft | 440 kts | 194° |
| 2026-05-04 08:35 | 35.58761 | -8.43403 | 35002 ft | 440 kts | 194° |
| 2026-05-04 08:37 | 35.38007 | -8.49920 | 35003 ft | 440 kts | 194° |
| 2026-05-04 08:38 | 35.32082 | -8.51775 | 34997 ft | 439 kts | 194° |
| 2026-05-04 08:38 | 35.26160 | -8.53626 | 35004 ft | 439 kts | 194° |
| 2026-05-04 08:40 | 35.02476 | -8.61000 | 34995 ft | 440 kts | 194° |
| 2026-05-04 08:41 | 34.96550 | -8.62838 | 35008 ft | 440 kts | 194° |
| 2026-05-04 08:41 | 34.90614 | -8.64676 | 35000 ft | 440 kts | 194° |
| 2026-05-04 08:42 | 34.84684 | -8.66510 | 35006 ft | 440 kts | 194° |
| 2026-05-04 08:42 | 34.78750 | -8.68343 | 35004 ft | 440 kts | 194° |
| 2026-05-04 08:43 | 34.72851 | -8.70162 | 34999 ft | 440 kts | 194° |
| 2026-05-04 08:43 | 34.66919 | -8.71989 | 35002 ft | 440 kts | 194° |
| 2026-05-04 08:44 | 34.60975 | -8.73816 | 34998 ft | 440 kts | 194° |
| 2026-05-04 08:46 | 34.38500 | -8.84403 | 35002 ft | 439 kts | 219° |
| 2026-05-04 08:46 | 34.33754 | -8.89057 | 35001 ft | 439 kts | 219° |
| 2026-05-04 08:47 | 34.28991 | -8.93686 | 34997 ft | 439 kts | 218° |
| 2026-05-04 08:47 | 34.24202 | -8.98291 | 35007 ft | 440 kts | 218° |
| 2026-05-04 08:48 | 34.19409 | -9.02877 | 35004 ft | 440 kts | 218° |
| 2026-05-04 08:48 | 34.14608 | -9.07462 | 35002 ft | 440 kts | 218° |
| 2026-05-04 08:49 | 34.09804 | -9.12043 | 35001 ft | 440 kts | 218° |
| 2026-05-04 08:50 | 33.93004 | -9.28015 | 35003 ft | 440 kts | 218° |
| 2026-05-04 08:51 | 33.88189 | -9.32577 | 34997 ft | 440 kts | 218° |
| 2026-05-04 08:51 | 33.83375 | -9.37133 | 34998 ft | 440 kts | 218° |
| 2026-05-04 08:52 | 33.78552 | -9.41689 | 35001 ft | 440 kts | 218° |
| 2026-05-04 08:52 | 33.73769 | -9.46201 | 34998 ft | 440 kts | 218° |
| 2026-05-04 08:54 | 33.54509 | -9.64305 | 34997 ft | 439 kts | 218° |
| 2026-05-04 08:55 | 33.49689 | -9.68819 | 34998 ft | 439 kts | 218° |
| 2026-05-04 08:55 | 33.44867 | -9.73328 | 35002 ft | 439 kts | 218° |
| 2026-05-04 09:01 | 32.94202 | -10.20316 | 34998 ft | 440 kts | 218° |
| 2026-05-04 09:01 | 32.89361 | -10.24765 | 34997 ft | 440 kts | 218° |
| 2026-05-04 09:02 | 32.84518 | -10.29213 | 34997 ft | 440 kts | 218° |
| 2026-05-04 09:02 | 32.79679 | -10.33650 | 35006 ft | 440 kts | 218° |
| 2026-05-04 09:03 | 32.74834 | -10.38087 | 34998 ft | 440 kts | 218° |
| 2026-05-04 09:03 | 32.69988 | -10.42518 | 35008 ft | 440 kts | 217° |
| 2026-05-04 09:04 | 32.65135 | -10.46950 | 34997 ft | 439 kts | 217° |
| 2026-05-04 09:04 | 32.60280 | -10.51377 | 34998 ft | 439 kts | 217° |
| 2026-05-04 09:05 | 32.55430 | -10.55793 | 34998 ft | 439 kts | 217° |
| 2026-05-04 09:05 | 32.50613 | -10.60173 | 34998 ft | 439 kts | 217° |
| 2026-05-04 09:06 | 32.45759 | -10.64581 | 35000 ft | 439 kts | 217° |
| 2026-05-04 09:08 | 32.27144 | -10.81428 | 34998 ft | 439 kts | 217° |
| 2026-05-04 09:08 | 32.21485 | -10.86531 | 34998 ft | 439 kts | 217° |
| 2026-05-04 09:09 | 32.17440 | -10.90175 | 34998 ft | 439 kts | 217° |
| 2026-05-04 09:09 | 32.12574 | -10.94552 | 35001 ft | 439 kts | 217° |
| 2026-05-04 09:10 | 32.07704 | -10.98927 | 34997 ft | 439 kts | 217° |
| 2026-05-04 09:10 | 32.02868 | -11.03265 | 35001 ft | 439 kts | 217° |
| 2026-05-04 09:11 | 31.97999 | -11.07627 | 35003 ft | 439 kts | 217° |
| 2026-05-04 09:11 | 31.93131 | -11.11982 | 34997 ft | 439 kts | 217° |
| 2026-05-04 09:12 | 31.88250 | -11.16343 | 35004 ft | 439 kts | 217° |
| 2026-05-04 09:14 | 31.68779 | -11.33693 | 35007 ft | 439 kts | 217° |
| 2026-05-04 09:14 | 31.63910 | -11.38028 | 34998 ft | 439 kts | 217° |
| 2026-05-04 09:15 | 31.59039 | -11.42359 | 35005 ft | 439 kts | 217° |
| 2026-05-04 09:15 | 31.54196 | -11.46658 | 35003 ft | 439 kts | 217° |
| 2026-05-04 09:17 | 31.32242 | -11.66078 | 35003 ft | 439 kts | 217° |
| 2026-05-04 09:18 | 31.27361 | -11.70380 | 34998 ft | 439 kts | 217° |
| 2026-05-04 09:18 | 31.22510 | -11.74649 | 34997 ft | 439 kts | 217° |
| 2026-05-04 09:19 | 31.17625 | -11.78943 | 35002 ft | 439 kts | 217° |
| 2026-05-04 09:19 | 31.12739 | -11.83232 | 35001 ft | 439 kts | 217° |
| 2026-05-04 09:20 | 31.07843 | -11.87524 | 35005 ft | 439 kts | 217° |
| 2026-05-04 09:20 | 31.02957 | -11.91802 | 35003 ft | 439 kts | 217° |
| 2026-05-04 09:21 | 30.98067 | -11.96078 | 34998 ft | 439 kts | 217° |
| 2026-05-04 09:21 | 30.93172 | -12.00352 | 34998 ft | 439 kts | 217° |
| 2026-05-04 09:22 | 30.88298 | -12.04603 | 34997 ft | 439 kts | 217° |
| 2026-05-04 09:22 | 30.83407 | -12.08862 | 35002 ft | 439 kts | 217° |
| 2026-05-04 09:23 | 30.78509 | -12.13123 | 35003 ft | 439 kts | 217° |
| 2026-05-04 09:23 | 30.73609 | -12.17379 | 35005 ft | 439 kts | 217° |
| 2026-05-04 09:25 | 30.54043 | -12.34325 | 35002 ft | 439 kts | 217° |
| 2026-05-04 09:26 | 30.49137 | -12.38558 | 34997 ft | 439 kts | 217° |
| 2026-05-04 09:26 | 30.44228 | -12.42774 | 34998 ft | 439 kts | 216° |
| 2026-05-04 09:27 | 30.39311 | -12.46990 | 35001 ft | 439 kts | 216° |
| 2026-05-04 09:27 | 30.34396 | -12.51202 | 35003 ft | 439 kts | 216° |
| 2026-05-04 09:28 | 30.29482 | -12.55410 | 35007 ft | 439 kts | 216° |
| 2026-05-04 09:28 | 30.24597 | -12.59586 | 34997 ft | 439 kts | 216° |
| 2026-05-04 09:29 | 30.19674 | -12.63791 | 35003 ft | 439 kts | 216° |
| 2026-05-04 09:29 | 30.14752 | -12.67991 | 34998 ft | 439 kts | 216° |
| 2026-05-04 09:30 | 30.09834 | -12.72180 | 34997 ft | 439 kts | 216° |
| 2026-05-04 09:30 | 30.04920 | -12.76377 | 35003 ft | 439 kts | 216° |
| 2026-05-04 09:31 | 30.00039 | -12.80549 | 35007 ft | 439 kts | 216° |
| 2026-05-04 09:31 | 29.95125 | -12.84744 | 35002 ft | 439 kts | 216° |
| 2026-05-04 09:32 | 29.90206 | -12.88938 | 34998 ft | 439 kts | 216° |
| 2026-05-04 09:34 | 29.70566 | -13.05627 | 35006 ft | 439 kts | 216° |
| 2026-05-04 09:34 | 29.65647 | -13.09794 | 34998 ft | 439 kts | 216° |
| 2026-05-04 09:35 | 29.60726 | -13.13958 | 34997 ft | 439 kts | 216° |
| 2026-05-04 09:35 | 29.55803 | -13.18118 | 35002 ft | 439 kts | 216° |
| 2026-05-04 09:37 | 29.36093 | -13.34723 | 35003 ft | 439 kts | 216° |
| 2026-05-04 09:38 | 29.31195 | -13.38837 | 35000 ft | 439 kts | 216° |
| 2026-05-04 09:38 | 29.26265 | -13.42972 | 35003 ft | 439 kts | 216° |
| 2026-05-04 09:39 | 29.21333 | -13.47107 | 35000 ft | 439 kts | 216° |
| 2026-05-04 09:39 | 29.16394 | -13.51247 | 34999 ft | 440 kts | 217° |
| 2026-05-04 09:40 | 29.11690 | -13.55721 | 35000 ft | 440 kts | 221° |
| 2026-05-04 09:40 | 29.07132 | -13.60335 | 35008 ft | 440 kts | 221° |
| 2026-05-04 09:42 | 28.88552 | -13.78742 | 34048 ft | 441 kts | 220° |
| 2026-05-04 09:43 | 28.86219 | -13.81034 | 33807 ft | 441 kts | 220° |
| 2026-05-04 09:43 | 28.83889 | -13.83322 | 33559 ft | 441 kts | 220° |
| 2026-05-04 09:43 | 28.81564 | -13.85605 | 33312 ft | 441 kts | 220° |
| 2026-05-04 09:43 | 28.79240 | -13.87885 | 33064 ft | 441 kts | 220° |
| 2026-05-04 09:44 | 28.76915 | -13.90165 | 32817 ft | 441 kts | 220° |
| 2026-05-04 09:44 | 28.74586 | -13.92447 | 32569 ft | 441 kts | 220° |
| 2026-05-04 09:44 | 28.72259 | -13.94726 | 32321 ft | 441 kts | 220° |
| 2026-05-04 09:46 | 28.56369 | -14.10252 | 29125 ft | 421 kts | 220° |
| 2026-05-04 09:46 | 28.54150 | -14.12415 | 28601 ft | 419 kts | 220° |
| 2026-05-04 09:46 | 28.51946 | -14.14563 | 28079 ft | 416 kts | 220° |
| 2026-05-04 09:47 | 28.49752 | -14.16699 | 27558 ft | 414 kts | 220° |
| 2026-05-04 09:47 | 28.47573 | -14.18821 | 27040 ft | 412 kts | 220° |
| 2026-05-04 09:49 | 28.32669 | -14.33283 | 23540 ft | 393 kts | 220° |
| 2026-05-04 09:49 | 28.30599 | -14.35287 | 23082 ft | 390 kts | 220° |
| 2026-05-04 09:49 | 28.28546 | -14.37274 | 22621 ft | 387 kts | 220° |
| 2026-05-04 09:51 | 28.16510 | -14.48903 | 19829 ft | 371 kts | 220° |
| 2026-05-04 09:51 | 28.14550 | -14.50792 | 19364 ft | 369 kts | 220° |
| 2026-05-04 09:51 | 28.12603 | -14.52670 | 18912 ft | 367 kts | 220° |
| 2026-05-04 09:51 | 28.10664 | -14.54538 | 18469 ft | 364 kts | 220° |
| 2026-05-04 09:52 | 28.08741 | -14.56390 | 18011 ft | 362 kts | 220° |
| 2026-05-04 09:52 | 28.06828 | -14.58232 | 17570 ft | 359 kts | 220° |
| 2026-05-04 09:52 | 28.04927 | -14.60062 | 17131 ft | 357 kts | 220° |
| 2026-05-04 09:52 | 28.03065 | -14.61853 | 16691 ft | 355 kts | 220° |
| 2026-05-04 09:53 | 28.01189 | -14.63655 | 16257 ft | 353 kts | 220° |
| 2026-05-04 09:53 | 27.99361 | -14.65487 | 15870 ft | 349 kts | 224° |
| 2026-05-04 09:53 | 27.97685 | -14.67423 | 15645 ft | 340 kts | 226° |
| 2026-05-04 09:53 | 27.96065 | -14.69356 | 15265 ft | 338 kts | 226° |
| 2026-05-04 09:54 | 27.94456 | -14.71288 | 14826 ft | 337 kts | 226° |
| 2026-05-04 09:54 | 27.92852 | -14.73209 | 14416 ft | 335 kts | 226° |
| 2026-05-04 09:54 | 27.91254 | -14.75113 | 14058 ft | 332 kts | 226° |
| 2026-05-04 09:54 | 27.89701 | -14.76958 | 13970 ft | 315 kts | 226° |
| 2026-05-04 09:55 | 27.88220 | -14.78711 | 13858 ft | 302 kts | 226° |
| 2026-05-04 09:55 | 27.86786 | -14.80406 | 13667 ft | 295 kts | 226° |
| 2026-05-04 09:55 | 27.85368 | -14.82080 | 13346 ft | 294 kts | 226° |
| 2026-05-04 09:55 | 27.83953 | -14.83750 | 13009 ft | 294 kts | 226° |
| 2026-05-04 09:56 | 27.82540 | -14.85416 | 12698 ft | 292 kts | 226° |
| 2026-05-04 09:56 | 27.81137 | -14.87070 | 12390 ft | 291 kts | 226° |
| 2026-05-04 09:56 | 27.79740 | -14.88716 | 12083 ft | 289 kts | 226° |
| 2026-05-04 09:56 | 27.78373 | -14.90325 | 11989 ft | 276 kts | 226° |
| 2026-05-04 09:57 | 27.77075 | -14.91854 | 11887 ft | 264 kts | 226° |
| 2026-05-04 09:57 | 27.75830 | -14.93319 | 11708 ft | 254 kts | 226° |
| 2026-05-04 09:57 | 27.74615 | -14.94749 | 11393 ft | 252 kts | 226° |
| 2026-05-04 09:57 | 27.73418 | -14.96156 | 11034 ft | 251 kts | 226° |
| 2026-05-04 09:58 | 27.72195 | -14.97594 | 10667 ft | 250 kts | 226° |
| 2026-05-04 09:58 | 27.71398 | -14.98529 | 10454 ft | 249 kts | 226° |
| 2026-05-04 09:58 | 27.69820 | -15.00381 | 10133 ft | 245 kts | 225° |
| 2026-05-04 10:00 | 27.66147 | -14.94285 | 10002 ft | 249 kts | 47° |
| 2026-05-04 10:00 | 27.67334 | -14.92852 | 9999 ft | 251 kts | 47° |
| 2026-05-04 10:02 | 27.75061 | -14.93453 | 10003 ft | 252 kts | 249° |
| 2026-05-04 10:04 | 27.66213 | -15.01330 | 10011 ft | 246 kts | 155° |
| 2026-05-04 10:04 | 27.64869 | -15.00139 | 10003 ft | 246 kts | 125° |
| 2026-05-04 10:04 | 27.64240 | -14.98374 | 10002 ft | 246 kts | 95° |
| 2026-05-04 10:04 | 27.64492 | -14.96487 | 10005 ft | 247 kts | 65° |
| 2026-05-04 10:05 | 27.65453 | -14.94887 | 10009 ft | 248 kts | 49° |
| 2026-05-04 10:05 | 27.66620 | -14.93445 | 10003 ft | 250 kts | 47° |
| 2026-05-04 10:05 | 27.67808 | -14.92009 | 10000 ft | 251 kts | 47° |
| 2026-05-04 10:05 | 27.68995 | -14.90559 | 9997 ft | 252 kts | 47° |
| 2026-05-04 10:06 | 27.70232 | -14.89158 | 9985 ft | 252 kts | 34° |
| 2026-05-04 10:06 | 27.71851 | -14.88518 | 10010 ft | 248 kts | 1° |
| 2026-05-04 10:06 | 27.73518 | -14.88937 | 9995 ft | 247 kts | 330° |
| 2026-05-04 10:08 | 27.71555 | -14.98283 | 10010 ft | 249 kts | 227° |
| 2026-05-04 10:08 | 27.70374 | -14.99727 | 9999 ft | 251 kts | 227° |
| 2026-05-04 10:08 | 27.69126 | -15.01095 | 9985 ft | 251 kts | 212° |
| 2026-05-04 10:08 | 27.67478 | -15.01645 | 10007 ft | 249 kts | 178° |
| 2026-05-04 10:09 | 27.65831 | -15.01136 | 10001 ft | 248 kts | 147° |
| 2026-05-04 10:09 | 27.64638 | -14.99764 | 10001 ft | 247 kts | 117° |
| 2026-05-04 10:09 | 27.64214 | -14.97921 | 9998 ft | 246 kts | 88° |
| 2026-05-04 10:09 | 27.64671 | -14.96081 | 10009 ft | 246 kts | 59° |
| 2026-05-04 10:10 | 27.65712 | -14.94556 | 10009 ft | 247 kts | 48° |
| 2026-05-04 10:10 | 27.66868 | -14.93146 | 10000 ft | 248 kts | 47° |
| 2026-05-04 10:10 | 27.68049 | -14.91716 | 9999 ft | 249 kts | 47° |
| 2026-05-04 10:10 | 27.69226 | -14.90274 | 9999 ft | 250 kts | 47° |
| 2026-05-04 10:11 | 27.70505 | -14.88952 | 9982 ft | 250 kts | 27° |
| 2026-05-04 10:11 | 27.72171 | -14.88517 | 10004 ft | 248 kts | 355° |
| 2026-05-04 10:11 | 27.73786 | -14.89118 | 10002 ft | 247 kts | 324° |
| 2026-05-04 10:11 | 27.74914 | -14.90547 | 10011 ft | 246 kts | 295° |
| 2026-05-04 10:12 | 27.75257 | -14.92416 | 9999 ft | 246 kts | 264° |
| 2026-05-04 10:12 | 27.74726 | -14.94226 | 10013 ft | 245 kts | 237° |
| 2026-05-04 10:12 | 27.73658 | -14.95732 | 10012 ft | 247 kts | 227° |
| 2026-05-04 10:12 | 27.72485 | -14.97158 | 10011 ft | 249 kts | 227° |
| 2026-05-04 10:13 | 27.71301 | -14.98593 | 9999 ft | 250 kts | 227° |
| 2026-05-04 10:13 | 27.70121 | -15.00039 | 9999 ft | 251 kts | 227° |
| 2026-05-04 10:13 | 27.68805 | -15.01303 | 9980 ft | 251 kts | 204° |
| 2026-05-04 10:13 | 27.67117 | -15.01619 | 10003 ft | 248 kts | 172° |
| 2026-05-04 10:14 | 27.65532 | -15.00907 | 10005 ft | 247 kts | 141° |
| 2026-05-04 10:14 | 27.64490 | -14.99426 | 10005 ft | 246 kts | 111° |
| 2026-05-04 10:16 | 27.70838 | -14.88762 | 9982 ft | 250 kts | 20° |
| 2026-05-04 10:16 | 27.72536 | -14.88558 | 10002 ft | 248 kts | 348° |
| 2026-05-04 10:16 | 27.74082 | -14.89365 | 9999 ft | 247 kts | 318° |
| 2026-05-04 10:16 | 27.75061 | -14.90927 | 10003 ft | 246 kts | 288° |
| 2026-05-04 10:17 | 27.75213 | -14.92831 | 9998 ft | 246 kts | 257° |
| 2026-05-04 10:17 | 27.74530 | -14.94558 | 10012 ft | 245 kts | 233° |
| 2026-05-04 10:19 | 27.65258 | -15.00647 | 9999 ft | 247 kts | 135° |
| 2026-05-04 10:19 | 27.64358 | -14.99027 | 10000 ft | 246 kts | 105° |
| 2026-05-04 10:19 | 27.64304 | -14.97117 | 9996 ft | 246 kts | 74° |
| 2026-05-04 10:19 | 27.65069 | -14.95415 | 10009 ft | 246 kts | 51° |
| 2026-05-04 10:20 | 27.66196 | -14.93960 | 10003 ft | 247 kts | 47° |
| 2026-05-04 10:20 | 27.67375 | -14.92535 | 10000 ft | 249 kts | 47° |
| 2026-05-04 10:20 | 27.68554 | -14.91099 | 10003 ft | 250 kts | 47° |
| 2026-05-04 10:20 | 27.69735 | -14.89656 | 9999 ft | 251 kts | 45° |
| 2026-05-04 10:21 | 27.71179 | -14.88640 | 9993 ft | 249 kts | 13° |
| 2026-05-04 10:21 | 27.72885 | -14.88652 | 9999 ft | 248 kts | 342° |
| 2026-05-04 10:21 | 27.74345 | -14.89639 | 9999 ft | 247 kts | 312° |
| 2026-05-04 10:21 | 27.75169 | -14.91315 | 10008 ft | 246 kts | 282° |
| 2026-05-04 10:22 | 27.74302 | -14.94894 | 10014 ft | 246 kts | 230° |
| 2026-05-04 10:22 | 27.73161 | -14.96343 | 10009 ft | 248 kts | 227° |
| 2026-05-04 10:22 | 27.71982 | -14.97767 | 10000 ft | 249 kts | 227° |
| 2026-05-04 10:23 | 27.70800 | -14.99205 | 9999 ft | 250 kts | 227° |
| 2026-05-04 10:23 | 27.69609 | -15.00645 | 9997 ft | 251 kts | 223° |
| 2026-05-04 10:25 | 27.66451 | -14.93676 | 9999 ft | 248 kts | 41° |
| 2026-05-04 10:25 | 27.67945 | -14.92742 | 9972 ft | 249 kts | 12° |
| 2026-05-04 10:25 | 27.69656 | -14.92785 | 9933 ft | 248 kts | 341° |
| 2026-05-04 10:25 | 27.71105 | -14.93795 | 9883 ft | 247 kts | 311° |
| 2026-05-04 10:26 | 27.71898 | -14.95491 | 9855 ft | 247 kts | 281° |
| 2026-05-04 10:26 | 27.71865 | -14.97419 | 9842 ft | 247 kts | 259° |
| 2026-05-04 10:26 | 27.71450 | -14.99301 | 9805 ft | 249 kts | 245° |
| 2026-05-04 10:26 | 27.70574 | -15.00978 | 9778 ft | 249 kts | 237° |
| 2026-05-04 10:27 | 27.69644 | -15.02629 | 9664 ft | 250 kts | 238° |
| 2026-05-04 10:27 | 27.68736 | -15.04317 | 9462 ft | 253 kts | 239° |
| 2026-05-04 10:27 | 27.67862 | -15.06007 | 9203 ft | 252 kts | 240° |
| 2026-05-04 10:27 | 27.66998 | -15.07732 | 8932 ft | 252 kts | 240° |
| 2026-05-04 10:28 | 27.66140 | -15.09472 | 8569 ft | 254 kts | 241° |
| 2026-05-04 10:28 | 27.65285 | -15.11216 | 8296 ft | 254 kts | 241° |
| 2026-05-04 10:28 | 27.64432 | -15.12959 | 8012 ft | 254 kts | 241° |
| 2026-05-04 10:28 | 27.63778 | -15.14793 | 7702 ft | 254 kts | 264° |
| 2026-05-04 10:29 | 27.64000 | -15.16747 | 7377 ft | 254 kts | 288° |
| 2026-05-04 10:29 | 27.64632 | -15.18612 | 7079 ft | 254 kts | 292° |
| 2026-05-04 10:29 | 27.65308 | -15.20454 | 6803 ft | 254 kts | 292° |
| 2026-05-04 10:29 | 27.65975 | -15.22296 | 6531 ft | 252 kts | 292° |
| 2026-05-04 10:30 | 27.66625 | -15.24119 | 6258 ft | 248 kts | 291° |
| 2026-05-04 10:30 | 27.67258 | -15.25909 | 5997 ft | 244 kts | 291° |
| 2026-05-04 10:30 | 27.67879 | -15.27672 | 5742 ft | 239 kts | 291° |
| 2026-05-04 10:30 | 27.68485 | -15.29399 | 5496 ft | 235 kts | 291° |
| 2026-05-04 10:31 | 27.69081 | -15.31101 | 5253 ft | 231 kts | 291° |
| 2026-05-04 10:31 | 27.69665 | -15.32768 | 5013 ft | 226 kts | 291° |
| 2026-05-04 10:32 | 27.72998 | -15.42266 | 3685 ft | 213 kts | 297° |
| 2026-05-04 10:33 | 27.74027 | -15.43433 | 3440 ft | 214 kts | 334° |
| 2026-05-04 10:33 | 27.75361 | -15.44103 | 3207 ft | 206 kts | 335° |
| 2026-05-04 10:33 | 27.76640 | -15.44769 | 2971 ft | 199 kts | 335° |
| 2026-05-04 10:33 | 27.77920 | -15.45273 | 2729 ft | 193 kts | 357° |
| 2026-05-04 10:34 | 27.79162 | -15.44846 | 2590 ft | 189 kts | 30° |
| 2026-05-04 10:34 | 27.80351 | -15.44293 | 2486 ft | 183 kts | 14° |
| 2026-05-04 10:34 | 27.81545 | -15.43871 | 2259 ft | 178 kts | 22° |
| 2026-05-04 10:34 | 27.82663 | -15.43348 | 2034 ft | 171 kts | 22° |
| 2026-05-04 10:35 | 27.83747 | -15.42856 | 1813 ft | 165 kts | 21° |
| 2026-05-04 10:35 | 27.84791 | -15.42391 | 1619 ft | 160 kts | 21° |
| 2026-05-04 10:35 | 27.85813 | -15.41937 | 1431 ft | 155 kts | 21° |
| 2026-05-04 10:35 | 27.86834 | -15.41483 | 1190 ft | 158 kts | 21° |
| 2026-05-04 10:36 | 27.87837 | -15.41039 | 1006 ft | 152 kts | 21° |
| 2026-05-04 10:36 | 27.88813 | -15.40607 | 789 ft | 151 kts | 21° |
| 2026-05-04 10:36 | 27.89798 | -15.40166 | 558 ft | 153 kts | 21° |
| 2026-05-04 10:36 | 27.90790 | -15.39719 | 317 ft | 153 kts | 22° |
| 2026-05-04 10:37 | 27.91771 | -15.39286 | 122 ft | 149 kts | 21° |
| 2026-05-04 10:37 | 27.92681 | -15.38883 | 65 ft | 120 kts | 21° |
| 2026-05-04 10:37 | 27.93271 | -15.38622 | 57 ft | 68 kts | 21° |
| 2026-05-04 10:37 | 27.93625 | -15.38467 | 57 ft | 43 kts | 20° |
| 2026-05-04 10:39 | 27.93903 | -15.38535 | 71 ft | 6 kts | 201° |
| 2026-05-04 10:39 | 27.93858 | -15.38555 | 72 ft | 8 kts | 201° |
| 2026-05-04 10:39 | 27.93789 | -15.38584 | 68 ft | 13 kts | 199° |
| 2026-05-04 10:40 | 27.93704 | -15.38622 | 71 ft | 11 kts | 202° |
| 2026-05-04 10:40 | 27.93637 | -15.38652 | 69 ft | 10 kts | 201° |
| 2026-05-04 10:40 | 27.93576 | -15.38679 | 69 ft | 9 kts | 201° |
| 2026-05-04 10:40 | 27.93516 | -15.38706 | 73 ft | 9 kts | 201° |
| 2026-05-04 10:41 | 27.93456 | -15.38731 | 72 ft | 9 kts | 200° |
| 2026-05-04 10:41 | 27.93418 | -15.38775 | 76 ft | 9 kts | 283° |
| 2026-05-04 10:41 | 27.93438 | -15.38839 | 83 ft | 9 kts | 289° |
| 2026-05-04 10:41 | 27.93474 | -15.38882 | 83 ft | 8 kts | 359° |
| 2026-05-04 10:42 | 27.93528 | -15.38864 | 84 ft | 8 kts | 18° |
| 2026-05-04 10:42 | 27.93580 | -15.38842 | 83 ft | 8 kts | 21° |
| 2026-05-04 10:42 | 27.93630 | -15.38821 | 87 ft | 8 kts | 21° |
| 2026-05-04 10:42 | 27.93678 | -15.38800 | 82 ft | 7 kts | 20° |
| 2026-05-04 10:43 | 27.93724 | -15.38779 | 86 ft | 7 kts | 22° |
| 2026-05-04 10:44 | 27.93814 | -15.38834 | 86 ft | 0 kts | 291° |